Time;durP1;ratioP1;P1;durP2;ratioP2;P2;SDS_P1;SDS_P2;PMS_P1;PMS_P2;Temp;Humidity;BMP_temperature;BMP_pressure;BME280_temperature;BME280_humidity;BME280_pressure;Samples;Min_cycle;Max_cycle;Signal;HPM_P1;HPM_P2
2024/02/12 00:01:40;;;;;;;2.50;2.07;;;;;;;19.35;52.13;95843.97;5049948;28;20207;-26
2024/02/12 00:04:07;;;;;;;2.70;2.33;;;;;;;19.35;52.18;95849.94;5042641;28;20212;-25
2024/02/12 00:06:35;;;;;;;2.70;2.17;;;;;;;19.34;52.22;95847.38;5045118;28;20233;-25
2024/02/12 00:09:05;;;;;;;2.53;2.30;;;;;;;19.35;52.24;95849.94;5048495;28;20678;-25
2024/02/12 00:11:32;;;;;;;2.33;2.13;;;;;;;19.36;52.15;95853.34;5048629;28;20254;-25
2024/02/12 00:14:00;;;;;;;2.30;2.10;;;;;;;19.35;52.19;95849.94;5050385;28;20201;-25
2024/02/12 00:16:26;;;;;;;2.37;2.17;;;;;;;19.36;52.13;95850.81;5045333;28;20800;-26
2024/02/12 00:18:53;;;;;;;3.80;2.07;;;;;;;19.35;52.27;95843.97;5050649;28;20216;-26
2024/02/12 00:21:20;;;;;;;2.10;1.90;;;;;;;19.34;52.29;95843.16;5057807;28;20201;-25
2024/02/12 00:23:46;;;;;;;2.30;2.10;;;;;;;19.33;52.21;95841.41;5050225;28;20205;-25
2024/02/12 00:26:14;;;;;;;1.90;1.80;;;;;;;19.35;52.32;95841.44;5050020;28;20225;-30
2024/02/12 00:28:41;;;;;;;3.07;2.23;;;;;;;19.34;52.24;95848.25;5050777;28;20286;-25
2024/02/12 00:31:12;;;;;;;4.97;2.20;;;;;;;19.36;52.12;95840.63;5048940;28;20675;-27
2024/02/12 00:33:40;;;;;;;2.00;1.90;;;;;;;18.57;52.01;95718.31;5046228;28;20197;-28
2024/02/12 00:36:09;;;;;;;3.17;2.20;;;;;;;19.35;52.13;95852.47;5048589;28;20643;-25
2024/02/12 00:38:39;;;;;;;2.63;2.17;;;;;;;19.34;52.00;95850.78;5053555;28;20284;-27
2024/02/12 00:41:14;;;;;;;3.33;2.03;;;;;;;19.35;52.04;95852.47;5049877;28;20215;-25
2024/02/12 00:43:42;;;;;;;2.37;2.17;;;;;;;19.34;52.22;95848.25;5060708;28;20572;-27
2024/02/12 00:46:09;;;;;;;2.37;2.10;;;;;;;19.35;52.18;95859.25;5058205;28;20788;-26
2024/02/12 00:48:36;;;;;;;2.20;2.00;;;;;;;19.35;52.12;95849.94;5056785;28;20225;-26
2024/02/12 00:51:03;;;;;;;2.37;2.13;;;;;;;19.35;52.24;95859.25;5053736;28;20244;-25
2024/02/12 00:53:29;;;;;;;2.23;1.93;;;;;;;19.36;52.17;95861.00;5059813;28;20231;-25
2024/02/12 00:55:57;;;;;;;2.27;2.00;;;;;;;19.35;52.05;95857.59;5045488;28;20209;-26
2024/02/12 00:58:24;;;;;;;3.00;1.93;;;;;;;19.34;52.08;95858.44;5041556;28;20287;-25
2024/02/12 01:00:51;;;;;;;2.33;2.10;;;;;;;19.34;52.25;95868.63;5054021;28;20595;-27
2024/02/12 01:03:17;;;;;;;1.90;1.80;;;;;;;19.34;52.43;95868.63;5052484;28;20204;-25
2024/02/12 01:05:44;;;;;;;2.17;1.97;;;;;;;19.34;52.14;95863.53;5053353;28;20212;-25
2024/02/12 01:08:11;;;;;;;2.43;1.80;;;;;;;19.36;52.11;95871.19;5054943;28;20217;-29
2024/02/12 01:10:38;;;;;;;2.07;1.90;;;;;;;19.34;51.91;95870.28;5041257;28;20655;-25
2024/02/12 01:13:05;;;;;;;2.80;2.10;;;;;;;19.35;52.15;95869.44;5053613;28;20621;-25
2024/02/12 01:15:32;;;;;;;2.93;2.10;;;;;;;19.36;52.12;95866.09;5052410;28;20236;-25
2024/02/12 01:17:58;;;;;;;1.87;1.77;;;;;;;19.36;52.07;95863.53;5059002;28;20217;-25
2024/02/12 01:20:36;;;;;;;2.07;1.87;;;;;;;19.35;51.95;95860.13;5057363;28;20205;-25
2024/02/12 01:23:03;;;;;;;1.97;1.87;;;;;;;19.36;51.96;95866.91;5054642;28;20585;-25
2024/02/12 01:25:30;;;;;;;3.07;1.80;;;;;;;19.35;51.95;95861.81;5053846;28;20209;-25
2024/02/12 01:27:59;;;;;;;2.20;2.00;;;;;;;19.36;51.99;95866.09;5051851;28;20228;-25
2024/02/12 01:30:29;;;;;;;2.20;2.00;;;;;;;19.35;52.18;95869.44;5049540;28;20201;-28
2024/02/12 01:32:55;;;;;;;2.20;2.00;;;;;;;19.35;51.98;95860.13;5045964;28;20452;-25
2024/02/12 01:35:23;;;;;;;2.00;1.90;;;;;;;19.35;52.03;95851.63;5051823;28;20291;-25
2024/02/12 01:37:51;;;;;;;4.37;1.90;;;;;;;19.35;52.24;95860.13;5053247;28;20267;-25
2024/02/12 01:40:18;;;;;;;1.67;1.57;;;;;;;19.35;52.16;95867.78;5053079;28;20250;-27
2024/02/12 01:42:45;;;;;;;2.03;1.83;;;;;;;19.35;52.24;95870.31;5047266;28;20608;-25
2024/02/12 01:45:11;;;;;;;1.90;1.80;;;;;;;19.36;52.13;95868.63;5050691;28;20291;-25
2024/02/12 01:47:43;;;;;;;2.03;1.93;;;;;;;19.35;52.13;95870.31;5052191;28;20225;-25
2024/02/12 01:50:15;;;;;;;2.60;1.80;;;;;;;19.35;51.99;95872.84;5046866;28;20687;-25
2024/02/12 01:52:49;;;;;;;2.23;2.03;;;;;;;19.36;51.99;95873.72;5051357;28;20201;-25
2024/02/12 01:55:17;;;;;;;2.10;1.90;;;;;;;19.33;52.08;95868.59;5040371;28;20701;-26
2024/02/12 01:57:46;;;;;;;2.13;1.93;;;;;;;19.36;52.08;95869.47;5021387;28;20213;-25
2024/02/12 02:00:14;;;;;;;1.90;1.80;;;;;;;19.36;51.92;95869.47;5027699;28;20204;-26
2024/02/12 02:02:44;;;;;;;1.93;1.73;;;;;;;19.37;51.93;95867.78;5041689;28;20718;-29
2024/02/12 02:05:13;;;;;;;2.03;1.90;;;;;;;19.38;51.92;95872.03;5047820;28;20205;-26
2024/02/12 02:07:40;;;;;;;2.13;1.90;;;;;;;19.37;52.07;95865.25;5043782;28;20603;-27
2024/02/12 02:10:09;;;;;;;2.53;2.13;;;;;;;19.36;52.14;95866.09;5057399;28;20208;-25
2024/02/12 02:12:36;;;;;;;2.27;1.80;;;;;;;19.37;51.84;95866.09;5041964;28;20205;-26
2024/02/12 02:15:03;;;;;;;1.80;1.70;;;;;;;19.37;52.03;95876.28;5044316;28;20263;-25
2024/02/12 02:17:30;;;;;;;1.97;1.80;;;;;;;19.37;52.01;95878.84;5044675;28;20213;-25
2024/02/12 02:19:58;;;;;;;2.03;1.80;;;;;;;19.38;51.81;95877.13;5051380;28;20718;-25
2024/02/12 02:22:29;;;;;;;1.90;1.80;;;;;;;19.38;51.98;95882.22;5044389;28;20641;-25
2024/02/12 02:24:57;;;;;;;2.03;1.90;;;;;;;19.37;52.06;95873.75;5047231;28;20264;-25
2024/02/12 02:27:25;;;;;;;1.80;1.70;;;;;;;19.37;51.95;95877.97;5040821;28;20295;-25
2024/02/12 02:29:52;;;;;;;2.50;2.30;;;;;;;19.38;51.84;95874.56;5052355;28;20201;-25
2024/02/12 02:32:18;;;;;;;1.97;1.87;;;;;;;19.38;52.04;95877.13;5052257;28;20201;-28
2024/02/12 02:34:46;;;;;;;1.87;1.77;;;;;;;19.36;51.86;95871.19;5049762;28;20645;-27
2024/02/12 02:37:13;;;;;;;1.70;1.60;;;;;;;19.37;52.03;95876.28;5050727;28;20221;-26
2024/02/12 02:39:39;;;;;;;1.90;1.80;;;;;;;19.37;51.90;95873.75;5033475;28;20204;-26
2024/02/12 02:42:06;;;;;;;1.80;1.70;;;;;;;19.38;51.87;95870.34;5045930;28;20279;-26
2024/02/12 02:44:35;;;;;;;1.70;1.60;;;;;;;19.38;51.76;95869.50;5050164;28;20209;-27
2024/02/12 02:47:04;;;;;;;1.83;1.73;;;;;;;19.36;51.79;95869.47;5049071;28;20643;-26
2024/02/12 02:49:31;;;;;;;1.80;1.70;;;;;;;18.92;52.05;95794.22;5051332;28;20282;-25
2024/02/12 02:51:58;;;;;;;1.70;1.60;;;;;;;19.37;51.76;95871.19;5051834;28;20299;-26
2024/02/12 02:54:24;;;;;;;1.80;1.70;;;;;;;19.37;52.07;95877.97;5043136;28;20252;-33
2024/02/12 02:56:51;;;;;;;2.13;1.87;;;;;;;19.37;51.95;95871.19;5049658;28;20213;-25
2024/02/12 02:59:18;;;;;;;1.60;1.50;;;;;;;19.37;51.96;95866.09;5047829;28;20197;-26
2024/02/12 03:01:45;;;;;;;2.60;1.70;;;;;;;19.37;51.90;95862.69;5055422;28;20723;-25
2024/02/12 03:04:14;;;;;;;1.70;1.60;;;;;;;19.37;51.79;95871.19;5044092;28;20197;-26
2024/02/12 03:06:41;;;;;;;2.07;1.87;;;;;;;19.38;51.78;95882.22;5045641;28;20610;-26
2024/02/12 03:09:07;;;;;;;1.80;1.70;;;;;;;19.38;51.52;95874.56;5037938;28;20221;-25
2024/02/12 03:11:37;;;;;;;1.90;1.80;;;;;;;19.38;51.56;95880.53;5044077;28;20205;-26
2024/02/12 03:14:04;;;;;;;1.80;1.70;;;;;;;19.38;51.78;95880.53;5049896;28;20315;-25
2024/02/12 03:16:32;;;;;;;1.70;1.60;;;;;;;19.39;51.15;95883.94;5050966;28;20220;-27
2024/02/12 03:19:00;;;;;;;1.80;1.70;;;;;;;19.38;52.15;95882.22;5043253;28;20193;-25
2024/02/12 03:21:27;;;;;;;1.60;1.50;;;;;;;19.39;51.84;95887.34;5050544;28;20212;-27
2024/02/12 03:23:54;;;;;;;1.57;1.47;;;;;;;19.32;51.98;95879.59;5045163;28;20618;-25
2024/02/12 03:26:20;;;;;;;1.80;1.70;;;;;;;19.38;52.05;95889.88;5051270;28;20248;-25
2024/02/12 03:28:49;;;;;;;1.70;1.60;;;;;;;19.37;52.14;95888.16;5047550;28;20765;-26
2024/02/12 03:31:16;;;;;;;1.63;1.53;;;;;;;19.38;52.12;95889.88;5046199;28;20200;-25
2024/02/12 03:33:42;;;;;;;2.03;1.83;;;;;;;19.38;52.00;95892.41;5044251;28;20201;-34
2024/02/12 03:36:11;;;;;;;1.50;1.40;;;;;;;19.38;51.90;95884.75;5049858;28;20346;-26
2024/02/12 03:38:38;;;;;;;1.67;1.57;;;;;;;19.38;51.82;95885.63;5050820;28;20201;-25
2024/02/12 03:41:05;;;;;;;1.90;1.80;;;;;;;19.38;51.93;95888.19;5051171;28;20250;-25
2024/02/12 03:43:32;;;;;;;2.37;1.73;;;;;;;19.39;51.87;95899.22;5044726;28;20201;-25
2024/02/12 03:45:59;;;;;;;1.80;1.70;;;;;;;19.38;52.04;95893.28;5047876;28;20233;-25
2024/02/12 04:02:10;;;;;;;1.67;1.57;;;;;;;19.39;51.74;95911.97;5051657;28;20205;-27
2024/02/12 04:04:41;;;;;;;1.80;1.70;;;;;;;19.39;51.81;95910.25;5049480;28;20759;-25
2024/02/12 04:07:08;;;;;;;1.77;1.67;;;;;;;19.38;51.75;95912.78;5050448;28;20232;-27
2024/02/12 04:09:41;;;;;;;1.50;1.40;;;;;;;19.39;51.74;95914.53;5054709;28;20305;-28
2024/02/12 04:12:11;;;;;;;1.70;1.60;;;;;;;19.39;51.95;95919.63;5045125;28;20240;-25
2024/02/12 04:14:40;;;;;;;1.50;1.40;;;;;;;19.32;52.00;95903.38;5054447;28;20211;-25
2024/02/12 04:17:07;;;;;;;1.70;1.60;;;;;;;19.38;51.83;95921.28;5054138;28;20228;-28
2024/02/12 04:19:33;;;;;;;1.53;1.43;;;;;;;19.39;51.88;95924.72;5056155;28;20200;-25
2024/02/12 04:22:01;;;;;;;1.90;1.80;;;;;;;19.39;51.91;95923.00;5054468;28;20232;-25
2024/02/12 04:24:35;;;;;;;1.50;1.40;;;;;;;19.39;51.71;95925.53;5054612;28;20201;-25
2024/02/12 04:27:03;;;;;;;1.33;1.30;;;;;;;19.39;52.02;95935.72;5048930;28;20590;-25
2024/02/12 04:29:31;;;;;;;1.83;1.40;;;;;;;19.40;51.92;95928.94;5057826;28;20221;-25
2024/02/12 04:31:57;;;;;;;1.60;1.50;;;;;;;19.41;51.95;95938.28;5041511;28;20204;-27
2024/02/12 04:34:24;;;;;;;1.43;1.33;;;;;;;19.41;52.01;95948.47;5051124;28;20670;-25
2024/02/12 04:36:55;;;;;;;1.70;1.60;;;;;;;19.41;51.86;95941.72;5053973;28;20217;-25
2024/02/12 04:39:21;;;;;;;1.53;1.43;;;;;;;19.41;52.09;95940.84;5052095;28;20196;-28
2024/02/12 04:41:51;;;;;;;1.60;1.50;;;;;;;19.42;51.80;95945.97;5051647;28;20255;-27
2024/02/12 04:44:17;;;;;;;1.60;1.50;;;;;;;19.41;51.90;95941.72;5051467;28;20254;-25
2024/02/12 04:46:45;;;;;;;1.40;1.30;;;;;;;19.42;51.81;95950.22;5049125;28;20244;-26
2024/02/12 04:49:12;;;;;;;1.53;1.43;;;;;;;19.43;51.76;95944.28;5050512;28;20698;-25
2024/02/12 04:51:40;;;;;;;1.50;1.40;;;;;;;19.44;51.87;95951.94;5054434;28;20208;-26
2024/02/12 04:54:07;;;;;;;1.47;1.37;;;;;;;19.44;51.71;95948.53;5046728;28;20202;-25
2024/02/12 04:56:34;;;;;;;1.57;1.47;;;;;;;19.38;51.70;95928.94;5055074;28;20661;-29
2024/02/12 04:59:01;;;;;;;1.50;1.40;;;;;;;19.44;51.60;95945.97;5059966;28;20702;-26
2024/02/12 05:01:28;;;;;;;1.63;1.53;;;;;;;19.45;51.50;95947.72;5045988;28;20208;-25
2024/02/12 05:03:55;;;;;;;1.20;1.20;;;;;;;19.44;51.99;95954.47;5051160;28;20205;-27
2024/02/12 05:08:52;;;;;;;1.67;1.57;;;;;;;19.44;51.97;95951.06;5014762;28;20218;-28
2024/02/12 05:11:20;;;;;;;4.10;1.40;;;;;;;19.45;52.03;95960.44;5014043;28;20301;-28
2024/02/12 05:13:47;;;;;;;1.60;1.50;;;;;;;19.45;51.99;95963.81;5015990;28;20292;-25
2024/02/12 05:16:14;;;;;;;3.23;1.50;;;;;;;19.44;51.87;95967.22;5017165;28;20202;-25
2024/02/12 05:24:11;;;;;;;1.47;1.37;;;;;;;19.45;52.03;95963.00;5021196;28;20276;-25
2024/02/12 05:26:40;;;;;;;1.50;1.40;;;;;;;19.45;52.06;95968.91;5018232;28;20245;-28
2024/02/12 05:29:07;;;;;;;1.50;1.40;;;;;;;19.44;52.08;95967.22;5020775;28;20718;-25
2024/02/12 05:31:35;;;;;;;2.03;1.70;;;;;;;19.45;52.16;95973.19;5017444;28;20202;-28
2024/02/12 05:34:03;;;;;;;1.27;1.17;;;;;;;19.45;52.20;95973.19;5015718;28;20215;-29
2024/02/12 05:36:30;;;;;;;1.40;1.30;;;;;;;19.45;51.97;95979.13;5013539;28;20203;-25
2024/02/12 05:38:57;;;;;;;1.77;1.60;;;;;;;19.46;52.37;95979.97;5014201;28;20233;-25
2024/02/12 05:41:24;;;;;;;1.77;1.40;;;;;;;19.45;51.75;95978.28;5014845;28;20195;-25
2024/02/12 05:43:52;;;;;;;2.00;1.37;;;;;;;19.45;52.35;95979.13;5014362;28;20297;-26
2024/02/12 05:46:19;;;;;;;1.73;1.50;;;;;;;19.46;52.28;95980.84;5014778;28;20198;-25
2024/02/12 05:48:47;;;;;;;1.40;1.30;;;;;;;19.46;52.26;95985.06;5011637;28;20225;-25
2024/02/12 05:51:14;;;;;;;2.93;1.30;;;;;;;19.31;52.21;95965.38;5016813;28;20202;-25
2024/02/12 05:53:41;;;;;;;1.80;1.50;;;;;;;19.44;52.70;95987.59;5012302;28;20743;-26
2024/02/12 05:56:08;;;;;;;1.57;1.30;;;;;;;19.45;52.29;95993.56;5015447;28;20202;-25
2024/02/12 05:58:35;;;;;;;1.73;1.40;;;;;;;19.44;52.21;95997.78;5013507;28;20221;-25
2024/02/12 06:01:02;;;;;;;1.47;1.37;;;;;;;19.43;52.22;96000.31;5020196;28;20245;-25
2024/02/12 06:03:30;;;;;;;2.07;1.30;;;;;;;19.42;52.42;96004.53;5012950;28;20745;-32
2024/02/12 06:05:58;;;;;;;1.47;1.37;;;;;;;19.44;52.09;96002.03;5012411;28;20273;-25
2024/02/12 06:08:25;;;;;;;1.37;1.30;;;;;;;19.43;52.22;96007.97;5012616;28;20481;-25
2024/02/12 06:10:52;;;;;;;1.93;1.47;;;;;;;19.42;50.01;96007.09;5017439;28;20413;-25
2024/02/12 06:13:19;;;;;;;1.63;1.47;;;;;;;19.41;50.33;96007.06;5016782;28;20209;-25
2024/02/12 06:15:46;;;;;;;1.40;1.30;;;;;;;19.40;50.73;96010.47;5013913;28;20202;-25
2024/02/12 06:18:13;;;;;;;1.87;1.50;;;;;;;19.38;50.97;96007.91;5019430;28;20225;-25
2024/02/12 06:20:39;;;;;;;1.40;1.30;;;;;;;19.37;51.17;96002.78;5015689;28;20198;-25
2024/02/12 06:23:06;;;;;;;1.40;1.30;;;;;;;19.38;51.38;96005.34;5012756;28;20680;-25
2024/02/12 06:25:33;;;;;;;3.63;1.37;;;;;;;19.36;51.46;96012.09;5011999;28;20198;-25
2024/02/12 06:28:03;;;;;;;1.37;1.27;;;;;;;19.37;51.59;96021.47;5011349;28;20218;-25
2024/02/12 06:30:30;;;;;;;1.40;1.30;;;;;;;19.36;51.54;96024.00;5019639;28;20532;-27
2024/02/12 06:32:56;;;;;;;1.50;1.40;;;;;;;19.36;51.59;96029.94;5012439;28;20630;-25
2024/02/12 06:35:24;;;;;;;3.27;1.50;;;;;;;19.37;51.63;96038.44;5019256;28;20198;-25
2024/02/12 06:37:51;;;;;;;1.30;1.20;;;;;;;19.37;51.64;96038.44;5016604;28;20725;-25
2024/02/12 06:40:20;;;;;;;1.43;1.33;;;;;;;19.35;51.52;96037.56;5014628;28;20649;-25
2024/02/12 06:42:47;;;;;;;1.33;1.27;;;;;;;19.28;51.18;96034.09;5014767;28;20204;-25
2024/02/12 06:45:16;;;;;;;1.40;1.30;;;;;;;19.35;51.48;96050.28;5016848;28;20206;-25
2024/02/12 06:47:43;;;;;;;2.30;1.30;;;;;;;19.33;49.52;96045.19;5012148;28;20218;-26
2024/02/12 06:50:11;;;;;;;3.70;1.57;;;;;;;19.33;49.80;96046.88;5010852;28;20276;-25
2024/02/12 06:52:38;;;;;;;1.57;1.47;;;;;;;19.34;49.93;96053.69;5013632;28;20194;-28
2024/02/12 06:55:11;;;;;;;1.33;1.23;;;;;;;19.34;49.78;96053.69;5012111;28;20206;-25
2024/02/12 06:57:38;;;;;;;2.63;1.73;;;;;;;19.34;50.03;96056.22;5017175;28;20228;-25
2024/02/12 07:00:06;;;;;;;2.10;1.30;;;;;;;19.34;50.43;96059.66;5000001;28;21368;-26
2024/02/12 07:02:36;;;;;;;1.67;1.50;;;;;;;19.35;50.64;96066.44;5006291;28;20285;-25
2024/02/12 07:05:03;;;;;;;1.70;1.40;;;;;;;19.35;50.76;96066.44;5008608;28;20206;-28
2024/02/12 07:07:32;;;;;;;1.37;1.20;;;;;;;19.35;50.67;96071.53;5000953;28;20249;-27
2024/02/12 07:09:58;;;;;;;1.40;1.30;;;;;;;19.34;51.34;96071.50;5011986;28;20221;-28
2024/02/12 07:12:26;;;;;;;1.40;1.30;;;;;;;19.35;51.22;96073.22;5011660;28;20213;-25
2024/02/12 07:14:52;;;;;;;1.40;1.30;;;;;;;19.35;51.28;96076.63;5011218;28;20272;-34
2024/02/12 07:17:19;;;;;;;1.50;1.40;;;;;;;19.36;51.35;96074.94;5012879;28;20223;-25
2024/02/12 07:19:51;;;;;;;1.67;1.30;;;;;;;19.34;51.29;96080.03;5009016;28;20209;-25
2024/02/12 07:22:21;;;;;;;2.67;1.40;;;;;;;19.35;51.21;96080.84;5011637;28;20226;-26
2024/02/12 07:24:49;;;;;;;1.23;1.20;;;;;;;19.29;51.59;96076.53;5009777;28;20206;-26
2024/02/12 07:27:17;;;;;;;1.87;1.47;;;;;;;19.34;51.34;96090.22;5005600;28;20241;-25
2024/02/12 07:29:44;;;;;;;1.47;1.37;;;;;;;19.34;51.23;96090.22;5008672;28;20218;-25
2024/02/12 07:32:13;;;;;;;1.30;1.20;;;;;;;19.36;51.30;96102.97;5008564;28;20252;-26
2024/02/12 07:34:40;;;;;;;1.10;1.10;;;;;;;19.33;51.21;96091.03;5009401;28;20210;-28
2024/02/12 07:37:07;;;;;;;1.27;1.20;;;;;;;19.37;51.23;96099.56;5006831;28;20285;-28
2024/02/12 07:39:34;;;;;;;1.10;1.10;;;;;;;19.38;51.01;96106.38;5006644;28;20205;-25
2024/02/12 07:42:01;;;;;;;1.30;1.20;;;;;;;19.36;51.28;96096.16;5006799;28;20302;-25
2024/02/12 07:44:27;;;;;;;1.57;1.30;;;;;;;19.38;51.24;96101.28;5011069;28;20715;-27
2024/02/12 07:46:54;;;;;;;1.50;1.40;;;;;;;19.37;51.27;96102.13;5008186;28;20226;-29
2024/02/12 07:49:21;;;;;;;1.20;1.10;;;;;;;19.37;51.35;96103.00;5009059;28;20261;-25
2024/02/12 07:51:47;;;;;;;1.10;1.10;;;;;;;19.37;51.58;96113.19;5010488;28;20198;-25
2024/02/12 07:54:14;;;;;;;1.17;1.17;;;;;;;19.36;51.55;96110.63;5008357;28;20217;-29
2024/02/12 07:56:41;;;;;;;1.90;1.30;;;;;;;19.36;51.34;96115.72;5022790;28;20592;-28
2024/02/12 07:59:08;;;;;;;1.30;1.20;;;;;;;19.36;51.47;96118.25;5013177;28;20202;-28
2024/02/12 08:01:35;;;;;;;1.37;1.27;;;;;;;19.26;51.54;96098.50;5012694;28;20202;-25
2024/02/12 08:04:02;;;;;;;1.77;1.30;;;;;;;19.37;51.45;96125.06;5005233;28;20202;-27
2024/02/12 08:06:29;;;;;;;1.50;1.40;;;;;;;19.36;51.41;96119.09;5007695;28;20203;-31
2024/02/12 08:08:56;;;;;;;1.40;1.30;;;;;;;19.36;51.28;96126.72;5006482;28;20230;-26
2024/02/12 08:11:23;;;;;;;1.30;1.20;;;;;;;19.37;51.29;96122.50;5007678;28;20202;-30
2024/02/12 08:13:50;;;;;;;1.30;1.20;;;;;;;19.37;51.25;96120.81;5007155;28;20210;-28
2024/02/12 08:16:17;;;;;;;1.40;1.30;;;;;;;19.38;51.37;96136.94;5013068;28;20206;-27
2024/02/12 08:18:44;;;;;;;1.10;1.10;;;;;;;19.38;51.41;96134.41;5021067;28;20202;-28
2024/02/12 08:21:11;;;;;;;1.07;1.07;;;;;;;19.37;52.01;96136.09;5010117;28;20857;-29
2024/02/12 08:23:37;;;;;;;1.37;1.27;;;;;;;19.37;51.58;96140.34;5013922;28;20206;-26
2024/02/12 08:26:05;;;;;;;1.30;1.20;;;;;;;19.37;51.39;96143.75;5010048;28;20423;-25
2024/02/12 08:28:31;;;;;;;1.13;1.10;;;;;;;19.35;51.52;96145.41;5017555;28;20279;-27
2024/02/12 08:30:58;;;;;;;1.20;1.10;;;;;;;19.37;51.53;96153.94;5018255;28;20225;-29
2024/02/12 08:33:28;;;;;;;1.30;1.20;;;;;;;19.37;51.34;96161.56;5020273;28;20295;-29
2024/02/12 08:35:55;;;;;;;1.33;1.23;;;;;;;19.28;51.49;96153.78;5019862;28;20295;-28
2024/02/12 08:38:22;;;;;;;1.30;1.30;;;;;;;19.36;51.38;96170.03;5022467;28;20259;-27
2024/02/12 08:40:50;;;;;;;1.93;1.30;;;;;;;19.37;50.76;96176.00;5024069;28;20446;-25
2024/02/12 08:43:17;;;;;;;1.13;1.13;;;;;;;19.37;51.28;96174.31;5021801;28;20261;-28
2024/02/12 08:45:47;;;;;;;1.30;1.20;;;;;;;19.38;51.43;96175.16;5023255;28;20268;-26
2024/02/12 08:48:13;;;;;;;1.30;1.20;;;;;;;19.38;51.49;96170.06;5020408;28;20222;-25
2024/02/12 08:50:40;;;;;;;1.20;1.20;;;;;;;19.36;51.58;96175.13;5018615;28;20221;-26
2024/02/12 08:53:07;;;;;;;1.40;1.30;;;;;;;19.38;51.48;96183.66;5025622;28;20210;-25
2024/02/12 08:55:34;;;;;;;1.70;1.30;;;;;;;19.39;51.52;96179.44;5027686;28;20216;-25
2024/02/12 08:58:05;;;;;;;1.10;1.10;;;;;;;19.39;51.40;96174.34;5025929;28;20221;-28
2024/02/12 09:00:31;;;;;;;1.30;1.20;;;;;;;19.40;51.44;96181.13;5025454;28;20204;-26
2024/02/12 09:02:58;;;;;;;1.10;1.10;;;;;;;19.39;51.52;96179.44;5023799;28;20214;-26
2024/02/12 09:05:24;;;;;;;1.20;1.10;;;;;;;19.41;51.30;96180.28;5025237;28;20210;-29
2024/02/12 09:07:51;;;;;;;1.20;1.13;;;;;;;19.40;51.38;96184.56;5025159;28;20226;-26
2024/02/12 09:10:18;;;;;;;1.20;1.10;;;;;;;19.39;49.93;96179.44;5024592;28;20313;-25
2024/02/12 09:12:49;;;;;;;1.40;1.30;;;;;;;19.36;49.95;96175.13;5015730;28;20203;-27
2024/02/12 09:15:20;;;;;;;1.30;1.20;;;;;;;19.39;49.90;96184.53;5018067;28;20260;-27
2024/02/12 09:17:47;;;;;;;1.40;1.30;;;;;;;19.38;50.39;96188.75;5022576;28;20224;-27
2024/02/12 09:20:15;;;;;;;1.40;1.30;;;;;;;19.39;50.38;96187.91;5024093;28;20194;-25
2024/02/12 09:22:42;;;;;;;1.10;1.10;;;;;;;19.38;50.51;96187.88;5011644;28;20202;-30
2024/02/12 09:25:09;;;;;;;1.10;1.10;;;;;;;19.36;50.77;96189.56;5013677;28;20284;-25
2024/02/12 09:27:36;;;;;;;1.33;1.23;;;;;;;19.38;50.89;96196.41;5015948;28;20283;-31
2024/02/12 09:30:09;;;;;;;1.30;1.20;;;;;;;19.34;50.92;96184.47;5019924;28;20627;-25
2024/02/12 09:32:38;;;;;;;0.97;0.97;;;;;;;19.39;50.95;96194.72;5016817;28;20233;-25
2024/02/12 09:35:06;;;;;;;1.30;1.20;;;;;;;19.39;50.94;96192.19;5022089;28;20611;-25
2024/02/12 09:37:34;;;;;;;1.00;1.00;;;;;;;19.39;51.00;96197.28;5014093;28;20743;-25
2024/02/12 09:40:03;;;;;;;1.70;1.07;;;;;;;19.41;51.13;96200.69;5016906;28;20218;-34
2024/02/12 09:42:32;;;;;;;1.43;1.30;;;;;;;19.40;51.06;96212.56;5009304;28;20479;-27
2024/02/12 09:45:02;;;;;;;1.40;1.30;;;;;;;19.40;51.02;96212.56;5009858;28;20198;-29
2024/02/12 09:47:31;;;;;;;2.43;1.37;;;;;;;19.41;51.10;96205.78;5014285;28;20272;-26
2024/02/12 09:49:58;;;;;;;1.33;1.23;;;;;;;19.41;50.89;96203.22;5010251;28;20218;-25
2024/02/12 09:52:26;;;;;;;0.97;0.97;;;;;;;19.42;51.05;96212.59;5014066;28;20293;-28
2024/02/12 09:54:53;;;;;;;2.53;1.20;;;;;;;19.41;51.15;96213.41;5020880;28;20440;-27
2024/02/12 09:57:20;;;;;;;1.40;1.30;;;;;;;19.42;51.07;96217.69;5014146;28;21460;-27
2024/02/12 09:59:47;;;;;;;1.70;1.43;;;;;;;19.34;51.25;96203.97;5012443;28;20198;-31
2024/02/12 10:02:14;;;;;;;1.30;1.20;;;;;;;19.42;51.22;96215.16;5010882;28;20222;-25
2024/02/12 10:04:41;;;;;;;5.30;1.20;;;;;;;19.42;51.02;96222.78;5011789;28;20202;-28
2024/02/12 10:07:08;;;;;;;1.07;1.07;;;;;;;19.43;51.20;96227.03;4983824;28;20229;-26
2024/02/12 10:09:35;;;;;;;1.00;1.00;;;;;;;19.40;51.45;96227.88;5015235;28;20307;-26
2024/02/12 10:12:09;;;;;;;1.07;1.07;;;;;;;19.42;51.26;96231.28;5015527;28;20213;-25
2024/02/12 10:14:36;;;;;;;1.10;1.10;;;;;;;19.42;51.20;96238.91;5017394;28;20202;-25
2024/02/12 10:17:03;;;;;;;1.30;1.20;;;;;;;19.43;51.08;96244.88;5015874;28;20641;-25
2024/02/12 10:19:30;;;;;;;2.93;1.30;;;;;;;19.43;51.02;96242.34;5016388;28;20195;-25
2024/02/12 10:21:58;;;;;;;1.27;1.17;;;;;;;19.43;51.92;96243.19;5012309;28;20212;-25
2024/02/12 10:24:25;;;;;;;1.10;1.10;;;;;;;19.42;51.05;96246.56;5012177;28;20256;-26
2024/02/12 10:26:51;;;;;;;1.37;1.13;;;;;;;19.43;51.19;96252.53;5010897;28;20277;-25
2024/02/12 10:29:18;;;;;;;1.27;1.17;;;;;;;19.43;51.13;96247.44;5015401;28;20229;-27
2024/02/12 10:31:48;;;;;;;1.17;1.10;;;;;;;19.43;51.10;96249.97;5015990;28;20206;-25
2024/02/12 10:34:18;;;;;;;1.43;1.20;;;;;;;19.40;51.16;96244.81;5011021;28;20205;-25
2024/02/12 10:36:47;;;;;;;1.10;1.10;;;;;;;19.42;51.26;96249.09;5016279;28;20620;-25
2024/02/12 10:39:16;;;;;;;1.03;0.97;;;;;;;19.42;51.21;96254.19;5016684;28;20583;-26
2024/02/12 10:41:46;;;;;;;1.20;1.20;;;;;;;19.42;51.19;96256.75;5015075;28;20236;-26
2024/02/12 10:44:17;;;;;;;1.33;1.23;;;;;;;19.19;51.00;96214.69;5006960;28;20201;-26
2024/02/12 10:46:45;;;;;;;1.30;1.20;;;;;;;19.42;51.32;96254.19;5011065;28;20723;-27
2024/02/12 10:49:12;;;;;;;1.40;1.30;;;;;;;19.42;51.11;96244.00;5013480;28;20209;-25
2024/02/12 10:51:39;;;;;;;1.10;1.10;;;;;;;19.43;50.93;96253.38;5019380;28;20594;-31
2024/02/12 10:54:06;;;;;;;1.20;1.20;;;;;;;19.43;51.30;96255.06;5009220;28;20245;-26
2024/02/12 10:56:34;;;;;;;1.20;1.10;;;;;;;19.43;51.29;96253.38;5012847;28;20201;-28
2024/02/12 10:59:00;;;;;;;1.00;1.00;;;;;;;19.43;51.29;96253.38;5009053;28;20260;-25
2024/02/12 11:01:28;;;;;;;1.17;1.07;;;;;;;19.41;51.46;96255.03;5017691;28;20204;-25
2024/02/12 11:03:59;;;;;;;1.10;1.10;;;;;;;19.43;51.09;96258.50;5018125;28;20229;-25
2024/02/12 11:06:27;;;;;;;1.00;1.00;;;;;;;19.43;51.25;96262.72;5015422;28;20206;-28
2024/02/12 11:08:54;;;;;;;1.23;1.23;;;;;;;19.43;51.28;96265.25;5009894;28;20230;-24
2024/02/12 11:11:24;;;;;;;1.67;1.30;;;;;;;19.44;51.34;96259.31;5013330;28;20638;-24
2024/02/12 11:13:57;;;;;;;1.23;1.13;;;;;;;19.43;51.12;96263.59;5010181;28;20579;-25
2024/02/12 11:16:27;;;;;;;1.10;1.10;;;;;;;19.42;51.14;96261.00;5005968;28;20217;-24
2024/02/12 11:18:54;;;;;;;2.00;1.20;;;;;;;19.43;51.29;96258.50;4990802;28;20673;-24
2024/02/12 11:21:23;;;;;;;1.17;1.17;;;;;;;19.43;51.49;96266.13;5015921;28;20747;-23
2024/02/12 11:23:51;;;;;;;1.40;1.30;;;;;;;19.43;53.77;96273.78;5005211;28;20209;-23
2024/02/12 11:26:20;;;;;;;1.47;1.27;;;;;;;19.44;54.71;96278.03;5019307;28;20214;-24
2024/02/12 11:28:54;;;;;;;5.47;3.10;;;;;;;19.44;51.85;96282.25;4989629;28;20201;-25
2024/02/12 11:31:24;;;;;;;5.73;4.33;;;;;;;19.41;50.41;96277.97;5007642;28;20292;-25
2024/02/12 11:33:54;;;;;;;5.57;4.50;;;;;;;19.38;48.54;96284.69;5025347;28;20198;-25
2024/02/12 11:36:22;;;;;;;5.10;4.03;;;;;;;19.33;47.25;96283.78;5006858;28;20297;-24
2024/02/12 11:38:50;;;;;;;13.27;8.43;;;;;;;19.29;46.47;96282.84;5007160;28;20204;-25
2024/02/12 11:41:17;;;;;;;348.67;111.33;;;;;;;19.26;47.21;96281.88;5004640;28;20280;-24
2024/02/12 11:43:45;;;;;;;540.73;241.60;;;;;;;19.20;46.67;96280.09;5006071;28;20199;-25
2024/02/12 11:46:15;;;;;;;504.87;256.03;;;;;;;19.19;46.49;96282.63;4987711;28;20297;-24
2024/02/12 11:48:42;;;;;;;356.97;142.50;;;;;;;19.16;45.93;96283.41;5004922;28;20645;-25
2024/02/12 11:51:09;;;;;;;241.70;104.13;;;;;;;19.14;45.88;96287.63;4996516;28;20272;-24
2024/02/12 11:53:39;;;;;;;184.27;77.63;;;;;;;19.13;45.30;96288.44;5000453;28;20194;-24
2024/02/12 11:56:06;;;;;;;140.00;56.70;;;;;;;19.12;44.93;96296.91;5007238;28;20349;-24